Time;durP1;ratioP1;P1;durP2;ratioP2;P2;SDS_P1;SDS_P2;PMS_P1;PMS_P2;Temp;Humidity;BMP_temperature;BMP_pressure;BME280_temperature;BME280_humidity;BME280_pressure;Samples;Min_cycle;Max_cycle;Signal;HPM_P1;HPM_P2
2021/06/25 00:00:10;;;;;;;18.15;14.85;;;;;;;19.58;65.79;100576.84;5092388;28;20048;-63
2021/06/25 00:02:37;;;;;;;15.48;13.88;;;;;;;19.48;66.27;100578.25;5092232;28;20396;-63
2021/06/25 00:05:06;;;;;;;15.05;13.55;;;;;;;19.53;66.65;100571.50;5092362;28;20059;-63
2021/06/25 00:07:33;;;;;;;14.88;12.98;;;;;;;19.53;66.78;100577.16;5092294;28;20052;-63
2021/06/25 00:10:01;;;;;;;14.30;12.80;;;;;;;19.52;66.44;100580.34;5092081;28;20051;-63
2021/06/25 00:12:28;;;;;;;16.38;14.02;;;;;;;19.45;66.37;100570.53;5093300;28;20048;-63
2021/06/25 00:14:57;;;;;;;18.40;16.35;;;;;;;19.50;66.49;100579.91;5109645;28;20052;-64
2021/06/25 00:17:28;;;;;;;17.02;13.63;;;;;;;19.55;66.46;100583.25;5112585;28;20051;-63
2021/06/25 00:19:56;;;;;;;15.27;13.63;;;;;;;19.53;66.11;100568.69;5112364;28;20126;-63
2021/06/25 00:22:24;;;;;;;17.13;14.07;;;;;;;19.41;66.56;100572.47;5113564;28;20388;-63
2021/06/25 00:24:51;;;;;;;18.25;15.40;;;;;;;19.33;65.92;100570.69;5103080;28;20052;-63
2021/06/25 00:27:18;;;;;;;17.85;15.18;;;;;;;19.22;66.32;100564.00;5095651;28;20070;-63
2021/06/25 00:29:46;;;;;;;17.13;15.15;;;;;;;19.24;66.31;100578.56;5095642;28;20051;-63
2021/06/25 00:32:15;;;;;;;19.27;15.32;;;;;;;19.21;66.16;100568.00;5095498;28;20374;-63
2021/06/25 00:34:42;;;;;;;17.50;15.73;;;;;;;19.13;65.86;100566.22;5095795;28;20052;-63
2021/06/25 00:37:09;;;;;;;19.08;16.00;;;;;;;19.13;65.88;100563.38;5095815;28;20504;-63
2021/06/25 00:39:37;;;;;;;17.17;15.40;;;;;;;19.05;65.65;100566.06;5096357;28;20059;-63
2021/06/25 00:42:07;;;;;;;17.67;15.88;;;;;;;19.11;66.19;100557.28;5095422;28;20048;-63
2021/06/25 00:44:39;;;;;;;19.05;15.88;;;;;;;19.14;66.07;100557.38;5096386;28;20051;-63
2021/06/25 00:47:08;;;;;;;17.40;15.57;;;;;;;19.17;65.13;100552.97;5095562;28;20052;-63
2021/06/25 00:49:38;;;;;;;19.38;16.95;;;;;;;19.20;64.05;100560.72;5095399;28;20052;-63
2021/06/25 00:52:06;;;;;;;18.63;16.55;;;;;;;19.20;63.90;100557.91;5095551;28;20052;-63
2021/06/25 00:54:33;;;;;;;17.88;15.98;;;;;;;19.22;63.91;100555.53;5095929;28;20495;-63
2021/06/25 00:57:01;;;;;;;20.02;17.92;;;;;;;19.23;63.29;100554.31;5095769;28;20059;-63
2021/06/25 00:59:28;;;;;;;19.23;17.17;;;;;;;19.24;63.11;100550.31;5095192;28;20051;-63
2021/06/25 01:01:55;;;;;;;19.05;16.73;;;;;;;19.22;63.52;100555.53;5095825;28;20070;-63
2021/06/25 01:04:25;;;;;;;19.58;16.15;;;;;;;19.25;63.22;100551.94;5095503;28;20056;-63
2021/06/25 01:06:54;;;;;;;21.40;17.77;;;;;;;19.26;63.45;100554.41;5094856;28;20052;-63
2021/06/25 01:09:22;;;;;;;21.27;18.02;;;;;;;19.19;63.61;100559.91;5094841;28;20056;-63
2021/06/25 01:11:49;;;;;;;18.35;16.02;;;;;;;19.18;63.89;100563.09;5096334;28;20048;-63
2021/06/25 01:14:20;;;;;;;20.10;17.92;;;;;;;19.20;63.88;100569.19;5108009;28;20488;-63
2021/06/25 01:16:47;;;;;;;18.65;16.10;;;;;;;19.18;64.17;100563.91;5115412;28;20052;-63
2021/06/25 01:19:16;;;;;;;18.65;16.70;;;;;;;19.08;64.80;100567.31;5114750;28;20404;-63
2021/06/25 01:21:45;;;;;;;21.27;17.08;;;;;;;19.07;65.11;100562.88;5114757;28;20052;-63
2021/06/25 01:24:12;;;;;;;18.65;16.08;;;;;;;19.01;65.61;100570.81;5106837;28;20048;-63
2021/06/25 01:26:40;;;;;;;16.65;15.05;;;;;;;18.64;67.38;100568.31;5095068;28;20044;-63
2021/06/25 01:29:07;;;;;;;20.20;15.95;;;;;;;18.73;66.50;100565.31;5094581;28;20059;-63
2021/06/25 01:31:35;;;;;;;21.27;17.02;;;;;;;18.57;67.15;100562.53;5094472;28;20396;-63
2021/06/25 01:34:05;;;;;;;23.48;18.30;;;;;;;18.69;66.26;100560.75;5094479;28;20070;-63
2021/06/25 01:36:32;;;;;;;19.13;16.73;;;;;;;18.61;66.53;100563.44;5094537;28;20048;-63
2021/06/25 01:39:05;;;;;;;20.42;17.25;;;;;;;18.65;66.35;100557.88;5094080;28;20051;-63
2021/06/25 01:41:37;;;;;;;20.17;17.73;;;;;;;18.61;66.86;100562.63;5094062;28;20055;-63
2021/06/25 01:44:05;;;;;;;21.35;17.52;;;;;;;18.50;67.17;100556.72;5094148;28;20514;-63
2021/06/25 01:46:33;;;;;;;20.08;16.85;;;;;;;18.60;67.08;100560.97;5093950;28;20062;-63
2021/06/25 01:49:00;;;;;;;20.15;17.58;;;;;;;18.65;67.01;100564.34;5095115;28;20059;-63
2021/06/25 01:51:28;;;;;;;22.50;17.75;;;;;;;18.67;66.89;100556.31;5093938;28;20044;-63
2021/06/25 01:53:55;;;;;;;18.40;16.50;;;;;;;18.71;66.72;100549.91;5093714;28;20063;-63
2021/06/25 01:56:24;;;;;;;21.75;17.75;;;;;;;18.62;67.05;100547.31;5094018;28;20430;-63
2021/06/25 01:58:52;;;;;;;19.83;17.73;;;;;;;18.65;67.02;100541.75;5093751;28;20428;-63
2021/06/25 02:01:19;;;;;;;26.55;17.83;;;;;;;18.64;66.97;100556.22;5093605;28;20140;-64
2021/06/25 02:03:48;;;;;;;20.08;17.88;;;;;;;18.65;66.84;100555.88;5094205;28;20055;-63
2021/06/25 02:06:19;;;;;;;;;;;;;;;18.62;66.86;100553.75;5094313;28;20499;-63
2021/06/25 02:08:47;;;;;;;22.08;17.92;;;;;;;18.64;66.51;100548.56;5094165;28;19920;-63
2021/06/25 02:11:17;;;;;;;23.67;18.05;;;;;;;18.63;66.65;100549.78;5095709;28;20047;-63
2021/06/25 02:13:45;;;;;;;19.95;17.85;;;;;;;18.62;67.11;100542.47;5102065;28;20063;-63
2021/06/25 02:16:13;;;;;;;23.48;19.83;;;;;;;18.59;67.19;100545.25;5113793;28;20051;-63
2021/06/25 02:18:41;;;;;;;20.85;18.13;;;;;;;18.49;67.63;100538.16;5114158;28;20051;-63
2021/06/25 02:21:08;;;;;;;21.88;18.15;;;;;;;18.49;67.49;100543.78;5113727;28;20062;-64
2021/06/25 02:23:38;;;;;;;23.45;18.60;;;;;;;18.49;67.71;100534.53;5111071;28;20051;-63
2021/06/25 02:26:06;;;;;;;21.23;18.95;;;;;;;18.50;67.42;100542.63;5093736;28;20063;-63
2021/06/25 02:28:33;;;;;;;22.38;19.10;;;;;;;18.49;67.45;100540.16;5093662;28;20052;-63
2021/06/25 02:31:02;;;;;;;23.40;18.73;;;;;;;18.50;67.44;100542.63;5093600;28;20051;-63
2021/06/25 02:33:29;;;;;;;25.27;21.07;;;;;;;18.31;67.82;100532.09;5093860;28;20048;-63
2021/06/25 02:35:56;;;;;;;23.10;20.55;;;;;;;18.32;67.92;100535.72;5111600;28;20465;-63
2021/06/25 02:38:24;;;;;;;25.50;20.42;;;;;;;18.14;68.82;100527.66;5111850;28;20047;-63
2021/06/25 02:40:51;;;;;;;23.95;21.20;;;;;;;18.21;68.57;100530.63;5113697;28;20048;-63
2021/06/25 02:43:18;;;;;;;24.95;20.05;;;;;;;18.16;68.50;100530.91;5113442;28;20059;-63
2021/06/25 02:45:46;;;;;;;27.33;21.15;;;;;;;18.10;68.72;100535.19;5112946;28;20400;-63
2021/06/25 02:48:15;;;;;;;27.10;21.55;;;;;;;18.02;69.09;100537.00;5113348;28;20534;-63
2021/06/25 02:50:42;;;;;;;31.70;23.77;;;;;;;17.95;69.31;100527.53;5113863;28;20047;-63
2021/06/25 02:53:10;;;;;;;30.55;22.20;;;;;;;17.85;69.68;100531.75;5110085;28;20050;-63
2021/06/25 02:55:50;;;;;;;27.90;22.02;;;;;;;17.81;69.59;100527.97;5093123;28;20404;-63
2021/06/25 02:58:17;;;;;;;27.45;22.58;;;;;;;17.69;69.75;100523.22;5093093;28;20408;-63
2021/06/25 03:00:44;;;;;;;29.23;23.20;;;;;;;17.60;69.99;100528.22;5093394;28;20044;-62
2021/06/25 03:03:12;;;;;;;29.73;23.90;;;;;;;17.56;70.20;100530.13;5093015;28;20051;-63
2021/06/25 03:05:41;;;;;;;28.40;22.40;;;;;;;17.48;70.60;100528.28;5093026;28;20052;-63
2021/06/25 03:08:08;;;;;;;28.10;22.70;;;;;;;17.35;70.96;100522.72;5093921;28;20476;-63
2021/06/25 03:10:36;;;;;;;33.20;25.77;;;;;;;17.25;71.31;100526.84;5093309;28;20400;-63
2021/06/25 03:13:04;;;;;;;29.80;22.98;;;;;;;17.23;71.18;100522.78;5093503;28;20155;-63
2021/06/25 03:15:31;;;;;;;30.05;23.90;;;;;;;17.19;71.17;100524.66;5092810;28;20056;-63
2021/06/25 03:17:59;;;;;;;34.65;24.67;;;;;;;17.13;71.29;100520.47;5093456;28;20055;-63
2021/06/25 03:20:26;;;;;;;30.05;23.73;;;;;;;17.12;71.31;100524.47;5092984;28;20048;-63
2021/06/25 03:22:55;;;;;;;30.42;23.40;;;;;;;17.04;71.49;100524.25;5093036;28;20504;-63
2021/06/25 03:25:22;;;;;;;35.20;24.60;;;;;;;17.01;71.45;100527.78;5092963;28;20055;-63
2021/06/25 03:27:50;;;;;;;34.20;24.58;;;;;;;16.95;71.54;100522.78;5092849;28;20056;-63
2021/06/25 03:30:18;;;;;;;31.55;23.73;;;;;;;16.90;71.83;100521.00;5093000;28;20061;-63
2021/06/25 03:32:45;;;;;;;35.95;23.80;;;;;;;16.84;71.50;100514.00;5093182;28;20060;-63
2021/06/25 03:38:37;;;;;;;34.53;25.40;;;;;;;16.68;71.64;100518.69;4275120;22;21148;-80
2021/06/25 03:41:04;;;;;;;33.92;25.30;;;;;;;16.64;71.91;100525.03;5020099;28;20050;-80
2021/06/25 03:43:32;;;;;;;36.25;25.75;;;;;;;16.62;72.04;100523.75;5019070;28;20064;-80
2021/06/25 03:45:59;;;;;;;39.15;26.80;;;;;;;16.59;71.98;100524.47;5018840;28;20054;-79
2021/06/25 03:48:27;;;;;;;35.55;23.95;;;;;;;16.59;71.81;100530.91;5019598;28;20483;-78
2021/06/25 03:50:54;;;;;;;35.05;25.10;;;;;;;16.56;71.93;100519.53;5019032;28;20050;-78
2021/06/25 03:53:22;;;;;;;34.13;25.52;;;;;;;16.51;72.13;100523.41;5018402;28;20479;-79
2021/06/25 03:58:36;;;;;;;31.30;24.35;;;;;;;16.46;72.22;100525.63;5018117;28;20058;-78
2021/06/25 04:01:04;;;;;;;33.70;25.60;;;;;;;16.43;72.07;100524.34;5022967;28;20065;-79
2021/06/25 04:03:31;;;;;;;37.70;25.40;;;;;;;16.47;72.01;100522.47;5023042;28;20375;-79
2021/06/25 04:05:58;;;;;;;36.88;27.73;;;;;;;16.46;71.91;100528.44;5021936;28;20058;-80
2021/06/25 04:08:28;;;;;;;37.20;27.13;;;;;;;16.47;71.86;100525.28;5008972;28;20057;-80
2021/06/25 04:10:57;;;;;;;33.13;25.33;;;;;;;16.48;72.02;100531.72;5017249;28;20050;-78
2021/06/25 04:13:27;;;;;;;31.73;23.77;;;;;;;16.48;72.01;100524.09;5022886;28;20054;-78
2021/06/25 04:15:55;;;;;;;33.28;26.40;;;;;;;16.51;71.86;100528.22;5022591;28;20054;-78
2021/06/25 04:18:22;;;;;;;33.00;24.55;;;;;;;16.54;72.12;100531.13;5023580;28;20435;-79
2021/06/25 04:20:53;;;;;;;35.83;25.42;;;;;;;16.60;72.13;100535.34;5022191;28;20061;-78
2021/06/25 04:23:21;;;;;;;34.53;27.35;;;;;;;16.65;71.91;100539.91;5021812;28;20391;-80
2021/06/25 04:25:49;;;;;;;33.70;25.77;;;;;;;16.71;71.84;100537.66;5022153;28;20058;-79
2021/06/25 04:28:18;;;;;;;32.70;26.08;;;;;;;16.62;72.20;100538.63;5021510;28;20049;-80
2021/06/25 04:30:46;;;;;;;36.63;26.45;;;;;;;16.73;71.96;100540.94;5020531;28;20054;-78
2021/06/25 04:33:13;;;;;;;37.45;26.58;;;;;;;16.79;71.81;100533.91;5021520;28;20460;-79
2021/06/25 04:35:41;;;;;;;34.92;26.58;;;;;;;16.82;71.62;100528.44;5021874;28;20064;-79
2021/06/25 04:38:09;;;;;;;34.05;27.02;;;;;;;16.85;71.73;100532.50;5020727;28;20495;-78
2021/06/25 04:40:39;;;;;;;35.30;26.35;;;;;;;16.93;71.35;100525.94;5019831;28;20057;-79
2021/06/25 04:43:07;;;;;;;37.85;26.38;;;;;;;17.00;70.93;100531.75;5019826;28;20054;-78
2021/06/25 04:45:39;;;;;;;35.40;26.55;;;;;;;17.03;70.72;100531.06;5016446;28;20065;-78
2021/06/25 04:48:09;;;;;;;32.65;25.55;;;;;;;17.13;70.45;100537.34;5009353;28;20149;-79
2021/06/25 04:50:37;;;;;;;33.00;25.50;;;;;;;17.22;70.31;100532.41;5017190;28;20046;-80
2021/06/25 04:53:05;;;;;;;30.67;24.80;;;;;;;17.32;70.12;100534.69;5016005;28;20049;-78
2021/06/25 04:55:40;;;;;;;30.83;25.05;;;;;;;17.37;69.58;100530.81;5018191;28;20046;-79
2021/06/25 04:58:09;;;;;;;34.22;25.55;;;;;;;17.41;68.88;100524.09;5017427;28;20077;-80
2021/06/25 05:00:39;;;;;;;34.58;25.42;;;;;;;17.48;68.40;100531.09;5018312;28;20096;-80
2021/06/25 05:03:07;;;;;;;29.25;23.33;;;;;;;17.59;68.08;100530.19;5021031;28;20395;-80
2021/06/25 05:05:36;;;;;;;30.92;24.80;;;;;;;17.56;68.27;100524.50;5021410;28;20064;-80
2021/06/25 05:08:03;;;;;;;35.25;27.05;;;;;;;17.39;68.64;100526.44;5020787;28;20054;-79
2021/06/25 05:10:31;;;;;;;32.58;24.67;;;;;;;17.63;68.39;100519.84;5020174;28;20066;-80
2021/06/25 05:12:59;;;;;;;34.58;25.20;;;;;;;17.67;68.07;100522.78;5010305;28;20050;-80
2021/06/25 05:15:26;;;;;;;31.65;24.60;;;;;;;17.81;67.43;100525.97;5020528;28;20057;-80
2021/06/25 05:17:55;;;;;;;30.00;24.27;;;;;;;17.84;67.31;100530.09;5021032;28;20050;-80
2021/06/25 05:20:24;;;;;;;32.90;25.20;;;;;;;17.76;68.00;100533.88;5011765;28;20069;-78
2021/06/25 05:22:51;;;;;;;27.00;22.83;;;;;;;17.96;68.03;100529.19;5014229;28;20050;-78
2021/06/25 05:25:18;;;;;;;30.60;24.10;;;;;;;17.01;68.79;100526.97;5012152;28;20057;-77
2021/06/25 05:27:47;;;;;;;34.33;25.80;;;;;;;17.18;68.52;100525.84;5014147;28;20057;-77
2021/06/25 05:30:16;;;;;;;30.13;24.30;;;;;;;17.34;67.17;100523.88;5013352;28;20071;-77
2021/06/25 05:32:43;;;;;;;30.07;23.17;;;;;;;17.76;66.09;100522.59;5016097;28;20050;-79
2021/06/25 05:35:12;;;;;;;29.67;22.52;;;;;;;18.07;64.24;100512.56;5021768;28;20418;-80
2021/06/25 05:37:40;;;;;;;33.40;23.75;;;;;;;18.15;63.52;100520.00;5009972;28;20054;-82
2021/06/25 05:40:08;;;;;;;27.58;22.65;;;;;;;18.32;62.91;100521.63;5023806;28;20061;-81
2021/06/25 05:42:36;;;;;;;28.63;23.95;;;;;;;18.34;62.49;100519.25;5024857;28;20121;-81
2021/06/25 05:45:04;;;;;;;31.02;22.90;;;;;;;18.20;63.13;100514.88;5021879;28;20399;-81
2021/06/25 05:47:32;;;;;;;29.45;23.38;;;;;;;18.25;63.10;100517.44;5018875;28;20061;-81
2021/06/25 05:49:59;;;;;;;28.67;24.02;;;;;;;18.08;63.51;100515.00;5017880;28;20043;-80
2021/06/25 05:52:28;;;;;;;27.85;23.73;;;;;;;18.16;62.83;100518.81;5007201;28;20074;-80
2021/06/25 05:54:55;;;;;;;28.23;23.65;;;;;;;18.09;62.77;100518.66;5022191;28;20053;-80
2021/06/25 05:57:22;;;;;;;28.55;23.85;;;;;;;18.31;62.20;100522.78;5023550;28;20057;-80
2021/06/25 05:59:50;;;;;;;26.90;21.77;;;;;;;18.46;61.43;100525.59;5014718;28;20077;-82
2021/06/25 06:02:17;;;;;;;32.85;24.92;;;;;;;18.49;60.81;100532.50;5027273;28;20050;-82
2021/06/25 06:04:45;;;;;;;27.10;23.65;;;;;;;18.48;61.25;100530.03;5024095;28;20046;-82
2021/06/25 06:07:13;;;;;;;29.98;23.17;;;;;;;18.65;60.57;100524.81;5025144;28;20054;-82
2021/06/25 06:09:41;;;;;;;31.83;24.33;;;;;;;18.89;59.18;100520.13;5025859;28;20058;-81
2021/06/25 06:12:10;;;;;;;30.02;24.27;;;;;;;18.98;58.52;100528.38;5027966;28;20064;-82
2021/06/25 06:14:37;;;;;;;31.25;24.08;;;;;;;18.92;57.85;100527.03;5023343;28;20050;-82
2021/06/25 06:17:05;;;;;;;30.83;24.50;;;;;;;19.17;57.34;100534.06;5021973;28;20048;-81
2021/06/25 06:19:39;;;;;;;31.15;23.98;;;;;;;19.24;57.09;100528.53;5023498;28;20060;-82
2021/06/25 06:33:10;;;;;;;35.75;24.70;;;;;;;19.66;55.62;100521.28;5010839;28;20057;-80
2021/06/25 06:35:39;;;;;;;31.40;25.05;;;;;;;19.86;55.79;100534.22;5011518;28;20046;-80
2021/06/25 06:38:07;;;;;;;30.67;23.23;;;;;;;20.03;55.13;100526.41;5015939;28;20060;-81
2021/06/25 06:40:36;;;;;;;31.63;24.75;;;;;;;20.04;55.36;100537.34;5020500;28;20498;-79
2021/06/25 06:43:04;;;;;;;31.23;25.20;;;;;;;20.14;54.59;100535.91;5014448;28;20050;-80
2021/06/25 06:45:35;;;;;;;30.77;24.85;;;;;;;20.15;54.51;100536.72;5018478;28;20053;-80
2021/06/25 06:48:03;;;;;;;30.95;24.45;;;;;;;20.35;54.22;100545.91;5016525;28;20058;-80
2021/06/25 06:50:30;;;;;;;34.22;25.38;;;;;;;20.11;53.97;100538.66;5015682;28;20053;-80
2021/06/25 06:52:57;;;;;;;29.33;23.67;;;;;;;20.22;54.22;100543.31;5014189;28;20049;-80
2021/06/25 06:55:25;;;;;;;32.25;24.25;;;;;;;20.20;53.72;100540.03;5007901;28;20068;-81
2021/06/25 06:57:55;;;;;;;29.40;24.52;;;;;;;20.40;53.83;100549.25;5017100;28;20466;-79
2021/06/25 07:00:23;;;;;;;32.35;26.38;;;;;;;20.37;53.42;100537.84;5017569;28;20046;-79
2021/06/25 07:02:50;;;;;;;31.45;24.63;;;;;;;20.31;53.03;100543.03;5019463;28;20065;-79
2021/06/25 07:05:18;;;;;;;30.15;24.77;;;;;;;20.53;53.02;100530.03;5016498;28;20056;-79
2021/06/25 07:07:45;;;;;;;29.80;25.13;;;;;;;20.84;51.48;100539.41;5022103;28;20046;-80
2021/06/25 07:10:13;;;;;;;28.70;24.38;;;;;;;21.20;51.01;100542.72;5003068;28;20066;-80
2021/06/25 07:12:42;;;;;;;29.45;22.58;;;;;;;21.47;50.10;100544.28;5017630;28;20061;-79
2021/06/25 07:15:11;;;;;;;25.73;22.02;;;;;;;21.73;49.20;100544.56;5009899;28;20050;-80
2021/06/25 07:17:39;;;;;;;26.98;22.33;;;;;;;21.82;48.37;100542.25;5012705;28;20051;-79
2021/06/25 07:20:08;;;;;;;26.15;23.27;;;;;;;22.03;47.84;100536.78;5019451;28;20065;-79
2021/06/25 07:22:35;;;;;;;25.02;21.95;;;;;;;21.89;48.61;100551.63;5018031;28;20069;-79
2021/06/25 07:25:03;;;;;;;25.92;22.25;;;;;;;21.89;47.98;100537.44;5013662;28;20395;-80
2021/06/25 07:27:30;;;;;;;26.40;20.35;;;;;;;22.12;47.61;100544.97;5018572;28;20076;-79
2021/06/25 07:29:58;;;;;;;22.77;20.25;;;;;;;22.21;47.95;100536.09;5017515;28;20046;-79
2021/06/25 07:32:27;;;;;;;22.23;19.80;;;;;;;22.55;46.40;100548.16;5022542;28;20053;-80
2021/06/25 07:34:55;;;;;;;24.45;19.77;;;;;;;22.71;45.45;100536.50;5015440;28;20053;-79
2021/06/25 07:37:23;;;;;;;22.45;18.40;;;;;;;22.77;45.45;100545.47;5027234;28;20387;-79
2021/06/25 07:39:50;;;;;;;22.65;17.58;;;;;;;23.01;43.81;100541.16;5023905;28;20050;-80
2021/06/25 07:42:18;;;;;;;19.85;17.10;;;;;;;23.18;43.08;100543.28;5025446;28;20054;-80
2021/06/25 07:44:45;;;;;;;17.35;14.88;;;;;;;23.17;41.41;100540.84;5023464;28;20507;-79
2021/06/25 07:47:13;;;;;;;18.33;15.25;;;;;;;23.34;39.73;100542.94;5026559;28;20388;-80
2021/06/25 07:49:42;;;;;;;18.02;14.35;;;;;;;23.40;38.67;100544.19;5019633;28;20050;-81
2021/06/25 07:52:09;;;;;;;15.13;13.23;;;;;;;23.60;39.20;100541.81;5023120;28;20049;-81
2021/06/25 07:54:36;;;;;;;13.10;11.80;;;;;;;23.55;38.36;100538.53;5022399;28;20057;-79
2021/06/25 07:57:04;;;;;;;12.88;11.25;;;;;;;23.69;37.63;100544.28;5024304;28;20387;-80
2021/06/25 07:59:31;;;;;;;13.15;9.30;;;;;;;24.08;34.23;100537.84;5021946;28;20054;-80
2021/06/25 08:02:00;;;;;;;7.47;6.43;;;;;;;24.68;30.80;100537.03;5020274;28;20049;-81
2021/06/25 08:04:29;;;;;;;6.78;5.53;;;;;;;25.52;28.21;100536.34;5017741;28;20058;-77
2021/06/25 08:06:58;;;;;;;6.00;4.55;;;;;;;26.09;25.82;100528.66;5018419;28;20058;-77
2021/06/25 08:09:25;;;;;;;11.27;5.75;;;;;;;26.54;24.17;100528.66;5021666;28;20053;-78
2021/06/25 08:11:52;;;;;;;5.80;4.40;;;;;;;26.89;22.97;100530.34;5022212;28;20509;-81
2021/06/25 08:14:20;;;;;;;5.05;4.03;;;;;;;27.34;23.52;100523.75;5019394;28;20053;-80
2021/06/25 08:16:47;;;;;;;4.85;3.70;;;;;;;28.17;22.84;100526.19;5019083;28;20398;-80
2021/06/25 08:19:14;;;;;;;5.35;4.65;;;;;;;28.53;21.13;100525.59;5012820;28;20483;-80
2021/06/25 08:21:41;;;;;;;5.22;3.70;;;;;;;28.87;19.47;100527.41;5017494;28;20064;-79
2021/06/25 08:24:10;;;;;;;5.75;3.67;;;;;;;29.11;19.88;100529.00;5018129;28;20045;-78
2021/06/25 08:26:37;;;;;;;4.78;3.70;;;;;;;29.41;19.21;100521.41;5019531;28;20057;-80
2021/06/25 08:29:05;;;;;;;4.55;3.50;;;;;;;29.86;19.25;100515.09;5020131;28;20042;-79
2021/06/25 08:31:32;;;;;;;4.32;3.40;;;;;;;30.58;19.22;100516.16;5020953;28;20053;-79
2021/06/25 08:34:00;;;;;;;4.80;3.42;;;;;;;31.01;19.04;100503.47;5015781;28;20058;-80
2021/06/25 08:36:28;;;;;;;4.78;4.13;;;;;;;31.77;18.97;100502.00;5021682;28;20049;-80
2021/06/25 08:38:56;;;;;;;6.32;4.10;;;;;;;32.32;19.34;100505.53;5019388;28;20053;-80
2021/06/25 08:41:24;;;;;;;4.50;4.05;;;;;;;32.62;19.22;100500.41;5010979;28;20050;-80
2021/06/25 08:43:53;;;;;;;5.32;4.35;;;;;;;32.18;19.29;100511.00;5023538;28;20050;-80
2021/06/25 08:46:21;;;;;;;5.97;5.03;;;;;;;31.01;20.00;100508.41;5016872;28;20052;-80
2021/06/25 08:48:49;;;;;;;5.35;4.78;;;;;;;31.62;20.59;100500.84;5007345;28;20062;-81
2021/06/25 08:51:16;;;;;;;5.55;4.57;;;;;;;32.50;20.72;100504.09;5016723;28;20057;-81
2021/06/25 08:53:44;;;;;;;6.32;4.80;;;;;;;33.13;19.68;100505.94;5017993;28;20049;-80
2021/06/25 08:56:14;;;;;;;5.43;4.93;;;;;;;33.85;19.42;100506.06;5018038;28;20049;-79
2021/06/25 08:58:43;;;;;;;6.80;5.50;;;;;;;33.47;19.40;100501.34;5015430;28;20054;-81
2021/06/25 09:01:11;;;;;;;6.35;5.15;;;;;;;32.43;20.09;100502.28;5024589;28;20054;-82
2021/06/25 09:03:41;;;;;;;5.85;5.13;;;;;;;32.69;20.27;100500.13;5024090;28;20060;-83
2021/06/25 09:06:10;;;;;;;5.45;4.95;;;;;;;33.05;20.81;100501.69;5025686;28;20054;-84
2021/06/25 09:08:38;;;;;;;6.68;5.70;;;;;;;33.11;21.02;100511.38;5017333;28;20053;-78
2021/06/25 09:11:19;;;;;;;6.70;5.80;;;;;;;33.15;21.15;100508.38;5013526;28;20058;-80
2021/06/25 09:13:56;;;;;;;6.95;6.25;;;;;;;33.38;20.79;100504.19;5008210;28;20053;-79
2021/06/25 09:16:24;;;;;;;7.88;6.30;;;;;;;34.16;20.90;100499.41;5019721;28;20061;-79
2021/06/25 09:19:00;;;;;;;7.18;6.47;;;;;;;34.26;19.02;100494.47;5020323;28;20053;-80
2021/06/25 09:21:29;;;;;;;7.30;6.60;;;;;;;33.97;20.14;100498.53;5020400;28;20046;-80
2021/06/25 09:23:57;;;;;;;7.80;7.00;;;;;;;34.01;19.63;100507.06;5012568;28;20061;-80
2021/06/25 09:26:31;;;;;;;7.78;6.97;;;;;;;34.19;20.12;100491.88;5017188;28;20045;-80
2021/06/25 09:29:14;;;;;;;7.35;6.60;;;;;;;35.48;18.62;100489.78;5006118;28;20073;-80
2021/06/25 09:31:41;;;;;;;7.75;6.93;;;;;;;35.71;18.81;100487.47;5015314;28;20054;-80
2021/06/25 09:34:10;;;;;;;7.68;6.97;;;;;;;36.14;17.66;100485.31;5016233;28;20049;-81
2021/06/25 09:36:39;;;;;;;7.38;6.68;;;;;;;36.04;18.66;100486.66;5018304;28;20060;-81
2021/06/25 09:39:09;;;;;;;9.02;7.20;;;;;;;36.87;18.80;100491.88;5015249;28;20046;-79
2021/06/25 09:41:37;;;;;;;9.63;7.65;;;;;;;36.22;17.79;100489.47;5017993;28;20049;-81
2021/06/25 09:44:08;;;;;;;9.88;7.70;;;;;;;37.23;16.84;100487.03;5018218;28;20054;-80
2021/06/25 09:46:40;;;;;;;8.85;7.78;;;;;;;37.88;17.67;100490.78;5014997;28;20064;-80
2021/06/25 09:49:10;;;;;;;8.50;7.57;;;;;;;38.84;16.33;100488.41;5010109;28;20052;-81
2021/06/25 09:51:39;;;;;;;8.73;7.90;;;;;;;39.69;15.13;100484.22;5019205;28;20053;-80
2021/06/25 09:54:15;;;;;;;9.77;8.90;;;;;;;37.74;16.33;100492.44;5018151;28;20054;-80
2021/06/25 09:56:47;;;;;;;8.60;7.80;;;;;;;36.31;17.94;100498.13;5016737;28;20068;-80
2021/06/25 09:59:31;;;;;;;7.78;6.97;;;;;;;36.65;18.38;100495.97;5015934;28;20057;-80
2021/06/25 10:02:19;;;;;;;8.05;7.25;;;;;;;37.07;17.96;100492.03;5010621;28;20050;-80
2021/06/25 10:04:48;;;;;;;8.55;7.75;;;;;;;37.73;17.33;100490.03;5005604;28;20054;-80
2021/06/25 10:07:16;;;;;;;10.13;9.00;;;;;;;38.69;16.47;100495.13;5016960;28;20050;-81
2021/06/25 10:09:45;;;;;;;10.15;8.68;;;;;;;38.66;15.86;100484.53;5008849;28;20069;-79
2021/06/25 10:12:15;;;;;;;9.73;8.27;;;;;;;37.31;17.56;100483.22;5016659;28;20058;-80
2021/06/25 10:14:44;;;;;;;11.07;9.35;;;;;;;36.56;17.99;100487.28;5007254;28;20478;-80
2021/06/25 10:17:14;;;;;;;9.43;8.43;;;;;;;35.26;19.55;100492.06;5019489;28;20056;-79
2021/06/25 10:19:43;;;;;;;11.18;8.73;;;;;;;35.83;19.24;100479.84;5017302;28;20054;-78
2021/06/25 10:22:12;;;;;;;8.88;8.07;;;;;;;36.31;19.62;100480.72;5017996;28;20061;-78
2021/06/25 10:24:43;;;;;;;9.70;8.70;;;;;;;37.41;17.45;100480.25;5016856;28;20415;-79
2021/06/25 10:27:12;;;;;;;9.20;8.20;;;;;;;38.37;17.72;100480.41;5017020;28;20053;-79
2021/06/25 10:29:40;;;;;;;8.60;7.85;;;;;;;39.11;16.02;100467.53;5018977;28;20057;-80
2021/06/25 10:32:09;;;;;;;9.18;8.25;;;;;;;40.44;15.90;100452.88;5018027;28;20050;-80
2021/06/25 10:34:39;;;;;;;9.07;8.20;;;;;;;39.40;15.44;100459.88;5000473;28;20069;-79
2021/06/25 10:37:09;;;;;;;10.13;9.13;;;;;;;39.20;15.25;100457.81;5014707;28;20497;-78
2021/06/25 10:39:37;;;;;;;10.07;9.20;;;;;;;38.62;15.86;100469.38;5010728;28;20061;-78
2021/06/25 10:42:09;;;;;;;;;;;;;;;39.29;14.84;100471.41;5022788;28;20046;-81
2021/06/25 10:44:40;;;;;;;8.98;8.07;;;;;;;40.43;14.79;100459.25;5008039;28;19921;-79
2021/06/25 10:47:17;;;;;;;9.43;8.18;;;;;;;41.10;14.67;100465.28;5019324;28;20053;-80
2021/06/25 10:50:33;;;;;;;8.67;7.87;;;;;;;41.34;13.99;100461.06;5023007;28;20053;-81
2021/06/25 10:53:22;;;;;;;9.80;8.80;;;;;;;41.90;12.44;100469.03;5021245;28;20060;-82
2021/06/25 10:56:02;;;;;;;8.55;7.57;;;;;;;40.44;14.06;100457.91;5018361;28;20061;-80
2021/06/25 10:58:31;;;;;;;8.32;7.45;;;;;;;39.06;14.96;100465.38;5014837;28;20054;-81
2021/06/25 11:01:00;;;;;;;10.18;8.55;;;;;;;37.71;16.17;100461.47;5022026;28;20061;-82
2021/06/25 11:03:37;;;;;;;9.30;8.40;;;;;;;36.34;17.44;100453.59;5019780;28;20050;-83
2021/06/25 11:06:05;;;;;;;8.85;7.38;;;;;;;34.88;18.81;100461.56;5012620;28;20060;-82
2021/06/25 11:08:34;;;;;;;8.88;7.20;;;;;;;34.34;20.39;100464.75;5014463;28;20049;-81
2021/06/25 11:11:02;;;;;;;14.40;8.18;;;;;;;33.76;20.54;100457.69;5014232;28;20387;-81
2021/06/25 11:13:34;;;;;;;8.38;7.57;;;;;;;33.48;21.63;100461.75;5016271;28;20053;-82
2021/06/25 11:16:20;;;;;;;8.63;7.72;;;;;;;33.36;22.32;100460.53;5024163;28;20050;-78
2021/06/25 11:18:49;;;;;;;10.15;9.18;;;;;;;33.31;22.38;100464.06;5012306;28;20046;-80
2021/06/25 11:21:17;;;;;;;10.35;9.35;;;;;;;32.97;22.88;100469.44;5013727;28;20057;-78
2021/06/25 11:23:47;;;;;;;15.63;9.90;;;;;;;32.00;23.03;100465.47;5009881;28;20053;-79
2021/06/25 11:26:26;;;;;;;11.60;10.40;;;;;;;31.93;23.29;100461.53;5017695;28;20064;-82
2021/06/25 11:28:55;;;;;;;11.98;9.60;;;;;;;31.65;23.85;100457.53;5019062;28;20485;-80
2021/06/25 11:31:25;;;;;;;10.50;9.50;;;;;;;33.41;23.35;100459.94;5016767;28;20061;-80
2021/06/25 11:33:57;;;;;;;11.02;9.57;;;;;;;35.30;21.75;100453.00;5005142;28;20050;-80
2021/06/25 11:36:38;;;;;;;10.00;9.00;;;;;;;35.93;19.81;100453.22;5014961;28;20065;-79
2021/06/25 11:39:32;;;;;;;10.52;9.43;;;;;;;34.94;20.29;100453.84;5002374;28;20058;-79